createdAt,value
2019-03-01T00:01:40.710Z,147.05
2019-03-01T00:04:19.228Z,137.77
2019-03-01T00:06:57.310Z,138.10
2019-03-01T00:09:41.912Z,129.53
2019-03-01T00:12:14.778Z,131.05
2019-03-01T00:15:03.798Z,129.23
2019-03-01T00:17:51.500Z,127.50
2019-03-01T00:20:43.637Z,112.67
2019-03-01T00:23:44.886Z,109.37
2019-03-01T00:26:20.162Z,107.77
2019-03-01T00:28:59.978Z,102.27
2019-03-01T00:32:04.119Z,105.27
2019-03-01T00:34:55.870Z,108.00
2019-03-01T00:37:34.322Z,99.97
2019-03-01T00:40:23.025Z,107.60
2019-03-01T00:43:01.495Z,102.90
2019-03-01T00:45:30.957Z,106.50
2019-03-01T00:48:00.438Z,102.30
2019-03-01T00:50:29.889Z,98.25
2019-03-01T00:52:59.336Z,94.58
2019-03-01T00:55:28.810Z,99.17
2019-03-01T00:57:58.282Z,98.80
2019-03-01T01:00:42.885Z,98.10
2019-03-01T01:03:12.370Z,101.18
2019-03-01T01:05:42.903Z,96.95
2019-03-01T01:08:12.382Z,95.17
2019-03-01T01:10:41.825Z,93.30
2019-03-01T01:13:11.333Z,90.97
2019-03-01T01:15:40.838Z,88.72
2019-03-01T01:18:10.320Z,96.82
2019-03-01T01:20:39.893Z,96.72
2019-03-01T01:23:09.369Z,96.13
2019-03-01T01:25:38.841Z,90.55
2019-03-01T01:28:09.198Z,89.42
2019-03-01T01:30:39.753Z,83.05
2019-03-01T01:33:09.187Z,86.30
2019-03-01T01:35:39.817Z,84.07
2019-03-01T01:38:09.260Z,83.00
2019-03-01T01:40:38.967Z,92.37
2019-03-01T01:43:08.411Z,87.88
2019-03-01T01:45:37.977Z,87.88
2019-03-01T01:48:07.431Z,83.72
2019-03-01T01:50:36.899Z,80.55
2019-03-01T01:53:06.963Z,79.72
2019-03-01T01:55:36.475Z,81.22
2019-03-01T01:58:05.944Z,82.92
2019-03-01T02:00:35.453Z,82.82
2019-03-01T02:03:05.003Z,79.75
2019-03-01T02:05:34.519Z,81.37
2019-03-01T02:08:03.994Z,85.12
2019-03-01T02:10:33.558Z,77.53
2019-03-01T02:13:03.057Z,74.82
2019-03-01T02:15:32.502Z,79.95
2019-03-01T02:18:02.198Z,79.32
2019-03-01T02:20:31.975Z,80.67
2019-03-01T02:23:01.428Z,82.75
2019-03-01T02:25:31.875Z,81.35
2019-03-01T02:28:01.423Z,74.22
2019-03-01T02:30:34.068Z,77.22
2019-03-01T02:33:03.581Z,76.70
2019-03-01T02:35:33.087Z,72.03
2019-03-01T02:38:02.587Z,76.42
2019-03-01T02:40:36.044Z,76.05
2019-03-01T02:43:06.480Z,77.37
2019-03-01T02:45:35.912Z,71.90
2019-03-01T02:48:05.493Z,76.70
2019-03-01T02:50:34.929Z,72.37
2019-03-01T02:53:04.617Z,70.90
2019-03-01T02:55:34.237Z,66.10
2019-03-01T02:58:04.836Z,70.54
2019-03-01T03:00:34.408Z,73.07
2019-03-01T03:03:03.955Z,62.30
2019-03-01T03:05:35.075Z,64.20
2019-03-01T03:08:06.394Z,63.40
2019-03-01T03:10:35.829Z,63.08
2019-03-01T03:13:07.264Z,61.10
2019-03-01T03:15:41.314Z,58.42
2019-03-01T03:18:10.869Z,57.10
2019-03-01T03:20:40.309Z,56.18
2019-03-01T03:23:10.773Z,58.52
2019-03-01T03:25:40.263Z,57.43
2019-03-01T03:28:09.858Z,54.18
2019-03-01T03:30:39.362Z,57.10
2019-03-01T03:33:09.234Z,54.35
2019-03-01T03:35:38.678Z,52.33
2019-03-01T03:38:08.144Z,54.27
2019-03-01T03:40:37.644Z,52.62
2019-03-01T03:43:07.283Z,55.12
2019-03-01T03:45:36.762Z,50.60
2019-03-01T03:48:06.749Z,54.16
2019-03-01T03:50:36.227Z,53.78
2019-03-01T03:53:05.669Z,53.17
2019-03-01T03:55:35.230Z,53.90
2019-03-01T03:58:04.658Z,52.83
2019-03-01T04:00:34.103Z,51.70
2019-03-01T04:03:04.689Z,50.38
2019-03-01T04:05:34.244Z,52.65
2019-03-01T04:08:04.124Z,49.98
2019-03-01T04:10:34.043Z,51.08
2019-03-01T04:13:04.540Z,53.95
2019-03-01T04:15:34.036Z,52.67
2019-03-01T04:18:03.498Z,50.58
2019-03-01T04:20:32.960Z,52.93
2019-03-01T04:23:02.472Z,51.90
2019-03-01T04:25:31.967Z,52.85
2019-03-01T04:28:01.403Z,50.15
2019-03-01T04:30:30.969Z,51.37
2019-03-01T04:33:00.413Z,54.97
2019-03-01T04:35:29.884Z,53.90
2019-03-01T04:37:59.322Z,53.20
2019-03-01T04:40:28.792Z,50.28
2019-03-01T04:42:58.238Z,52.35
2019-03-01T04:45:27.787Z,55.07
2019-03-01T04:47:57.237Z,57.88
2019-03-01T04:50:26.735Z,55.55
2019-03-01T04:52:56.208Z,53.02
2019-03-01T04:55:26.826Z,58.28
2019-03-01T04:57:56.335Z,49.55
2019-03-01T05:00:26.120Z,55.33
2019-03-01T05:02:55.739Z,54.18
2019-03-01T05:05:25.173Z,53.13
2019-03-01T05:07:54.662Z,50.83
2019-03-01T05:10:24.181Z,53.42
2019-03-01T05:12:53.648Z,53.35
2019-03-01T05:15:24.334Z,53.50
2019-03-01T05:17:53.806Z,52.10
2019-03-01T05:20:23.292Z,55.03
2019-03-01T05:22:52.801Z,52.83
2019-03-01T05:25:22.249Z,55.40
2019-03-01T05:27:51.729Z,49.33
2019-03-01T05:30:21.228Z,51.60
2019-03-01T05:32:50.797Z,49.80
2019-03-01T05:35:20.320Z,50.17
2019-03-01T05:37:49.794Z,54.58
2019-03-01T05:40:19.275Z,53.78
2019-03-01T05:42:49.652Z,48.38
2019-03-01T05:45:24.103Z,52.50
2019-03-01T05:47:53.552Z,52.83
2019-03-01T05:50:23.028Z,47.73
2019-03-01T05:52:53.449Z,51.53
2019-03-01T05:55:22.930Z,51.60
2019-03-01T05:58:21.107Z,51.02
2019-03-01T06:00:52.089Z,51.60
2019-03-01T06:03:42.502Z,46.68
2019-03-01T06:06:26.818Z,51.77
2019-03-01T06:09:11.398Z,50.50
2019-03-01T06:11:52.706Z,52.58
2019-03-01T06:14:25.318Z,47.78
2019-03-01T06:17:00.776Z,51.08
2019-03-01T06:19:44.865Z,53.70
2019-03-01T06:22:17.382Z,51.70
2019-03-01T06:24:59.059Z,53.23
2019-03-01T06:28:06.251Z,51.58
2019-03-01T06:30:55.191Z,56.70
2019-03-01T06:33:27.723Z,48.95
2019-03-01T06:36:16.671Z,48.45
2019-03-01T06:39:05.331Z,60.15
2019-03-01T06:41:46.877Z,63.38
2019-03-01T06:44:25.339Z,49.90
2019-03-01T06:47:24.902Z,52.30
2019-03-01T06:49:56.081Z,48.68
2019-03-01T06:52:25.483Z,52.62
2019-03-01T06:54:55.122Z,54.83
2019-03-01T06:57:24.570Z,52.98
2019-03-01T06:59:54.100Z,50.50
2019-03-01T07:02:25.180Z,54.08
2019-03-01T07:04:54.676Z,50.98
2019-03-01T07:07:24.117Z,49.93
2019-03-01T07:09:53.604Z,48.08
2019-03-01T07:12:23.074Z,50.57
2019-03-01T07:14:52.556Z,50.80
2019-03-01T07:17:21.996Z,56.55
2019-03-01T07:19:51.484Z,58.45
2019-03-01T07:22:21.283Z,68.57
2019-03-01T07:24:50.771Z,69.17
2019-03-01T07:27:20.210Z,63.40
2019-03-01T07:29:49.706Z,55.48
2019-03-01T07:32:20.853Z,54.38
2019-03-01T07:34:50.355Z,52.48
2019-03-01T07:37:21.858Z,55.60
2019-03-01T07:39:51.243Z,54.95
2019-03-01T07:42:20.661Z,53.27
2019-03-01T07:47:18.638Z,56.30
2019-03-01T07:49:48.113Z,53.52
2019-03-01T07:52:17.549Z,53.08
2019-03-01T07:54:49.406Z,51.13
2019-03-01T07:57:18.200Z,52.53
2019-03-01T07:59:47.671Z,57.88
2019-03-01T08:02:17.111Z,56.40
2019-03-01T08:04:46.589Z,53.52
2019-03-01T08:07:16.080Z,55.07
2019-03-01T08:09:45.719Z,55.63
2019-03-01T08:12:15.304Z,65.83
2019-03-01T08:14:44.778Z,59.65
2019-03-01T08:17:14.223Z,61.33
2019-03-01T08:19:45.590Z,54.70
2019-03-01T08:22:14.849Z,52.47
2019-03-01T08:24:46.635Z,51.55
2019-03-01T08:27:15.528Z,60.00
2019-03-01T08:29:45.000Z,58.50
2019-03-01T08:32:15.566Z,61.33
2019-03-01T08:34:45.064Z,54.45
2019-03-01T08:37:17.438Z,53.92
2019-03-01T08:39:45.732Z,58.33
2019-03-01T08:42:15.238Z,57.58
2019-03-01T08:44:44.786Z,56.75
2019-03-01T08:47:14.285Z,57.20
2019-03-01T08:49:43.892Z,56.02
2019-03-01T08:52:13.455Z,52.70
2019-03-01T08:54:42.980Z,54.63
2019-03-01T08:57:12.743Z,54.83
2019-03-01T08:59:42.221Z,51.80
2019-03-01T09:02:12.022Z,55.57
2019-03-01T09:04:50.512Z,56.75
2019-03-01T09:07:13.781Z,57.40
2019-03-01T09:09:43.247Z,65.22
2019-03-01T09:12:12.824Z,59.45
2019-03-01T09:14:42.370Z,67.10
2019-03-01T09:17:11.806Z,62.45
2019-03-01T09:19:41.286Z,65.00
2019-03-01T09:22:10.799Z,71.08
2019-03-01T09:24:41.364Z,62.95
2019-03-01T09:27:10.936Z,65.10
2019-03-01T09:29:42.080Z,66.37
2019-03-01T09:32:11.823Z,74.15
2019-03-01T09:34:41.366Z,68.60
2019-03-01T09:37:11.005Z,72.05
2019-03-01T09:39:40.465Z,67.72
2019-03-01T09:42:12.451Z,75.62
2019-03-01T09:44:41.159Z,77.85
2019-03-01T09:47:10.713Z,79.06
2019-03-01T09:49:40.198Z,77.85
2019-03-01T09:52:10.102Z,75.73
2019-03-01T09:54:40.447Z,106.15
2019-03-01T09:57:12.471Z,86.42
2019-03-01T09:59:41.108Z,85.27
2019-03-01T10:02:10.556Z,79.20
2019-03-01T10:04:40.093Z,85.03
2019-03-01T10:07:09.548Z,122.70
2019-03-01T10:09:39.040Z,87.82
2019-03-01T10:12:08.536Z,92.72
2019-03-01T10:14:38.178Z,89.47
2019-03-01T10:17:08.459Z,108.92
2019-03-01T10:19:37.897Z,103.55
2019-03-01T10:22:07.708Z,107.55
2019-03-01T10:24:37.180Z,109.80
2019-03-01T10:27:06.724Z,112.95
2019-03-01T10:29:36.303Z,108.30
2019-03-01T10:32:06.130Z,107.37
2019-03-01T10:34:35.557Z,127.42
2019-03-01T10:37:05.006Z,121.90
2019-03-01T10:39:34.550Z,121.05
2019-03-01T10:42:04.624Z,118.53
2019-03-01T10:44:34.086Z,106.32
2019-03-01T10:47:04.517Z,113.76
2019-03-01T10:49:34.029Z,104.58
2019-03-01T10:52:03.481Z,113.77
2019-03-01T10:54:32.942Z,118.05
2019-03-01T10:57:02.433Z,116.25
2019-03-01T10:59:31.890Z,115.45
2019-03-01T11:02:01.371Z,128.60
2019-03-01T11:04:30.853Z,120.92
2019-03-01T11:07:00.447Z,205.55
2019-03-01T11:09:29.912Z,109.07
2019-03-01T11:11:59.401Z,108.63
2019-03-01T11:14:28.931Z,100.53
2019-03-01T11:16:58.436Z,97.50
2019-03-01T11:19:27.879Z,97.90
2019-03-01T11:21:57.346Z,97.40
2019-03-01T11:24:26.847Z,96.28
2019-03-01T11:26:56.414Z,98.65
2019-03-01T11:29:25.863Z,93.90
2019-03-01T11:31:55.335Z,100.55
2019-03-01T11:34:24.827Z,94.83
2019-03-01T11:36:54.379Z,92.47
2019-03-01T11:39:24.147Z,93.30
2019-03-01T11:41:53.650Z,100.22
2019-03-01T11:44:23.197Z,125.43
2019-03-01T11:46:52.721Z,92.25
2019-03-01T11:49:22.186Z,88.90
2019-03-01T11:51:51.700Z,92.97
2019-03-01T11:54:21.206Z,88.97
2019-03-01T11:56:50.693Z,88.72
2019-03-01T11:59:20.126Z,92.95
2019-03-01T12:01:49.582Z,89.03
2019-03-01T12:04:19.061Z,88.50
2019-03-01T12:06:49.536Z,84.20
2019-03-01T12:09:19.029Z,127.17
2019-03-01T12:11:48.531Z,86.80
2019-03-01T12:14:18.118Z,83.20
2019-03-01T12:16:47.591Z,78.80
2019-03-01T12:19:17.123Z,75.08
2019-03-01T12:21:46.601Z,80.83
2019-03-01T12:24:16.117Z,83.20
2019-03-01T12:26:45.552Z,85.00
2019-03-01T12:29:15.102Z,82.70
2019-03-01T12:31:44.570Z,84.45
2019-03-01T12:34:14.098Z,86.53
2019-03-01T12:36:43.576Z,86.17
2019-03-01T12:39:13.182Z,76.47
2019-03-01T12:41:42.815Z,79.72
2019-03-01T12:44:12.255Z,77.37
2019-03-01T12:46:41.742Z,70.62
2019-03-01T12:49:11.191Z,73.47
2019-03-01T12:51:42.394Z,67.45
2019-03-01T12:54:11.951Z,62.97
2019-03-01T12:56:42.430Z,65.45
2019-03-01T12:59:12.005Z,60.73
2019-03-01T13:01:41.844Z,60.43
2019-03-01T13:04:11.787Z,60.15
2019-03-01T13:06:41.271Z,54.25
2019-03-01T13:09:13.650Z,55.92
2019-03-01T13:11:43.091Z,49.33
2019-03-01T13:14:12.629Z,54.40
2019-03-01T13:16:42.303Z,50.75
2019-03-01T13:19:11.820Z,52.38
2019-03-01T13:21:42.262Z,48.50
2019-03-01T13:24:12.666Z,51.38
2019-03-01T13:26:43.588Z,45.63
2019-03-01T13:29:15.201Z,51.77
2019-03-01T13:31:47.168Z,48.55
2019-03-01T13:34:16.767Z,49.60
2019-03-01T13:36:46.220Z,53.35
2019-03-01T13:39:15.703Z,50.95
2019-03-01T13:41:45.284Z,53.28
2019-03-01T13:44:14.769Z,49.73
2019-03-01T13:46:44.201Z,46.15
2019-03-01T13:49:13.744Z,48.08
2019-03-01T13:51:43.246Z,47.27
2019-03-01T13:54:12.781Z,46.23
2019-03-01T13:56:42.388Z,47.95
2019-03-01T13:59:12.065Z,49.20
2019-03-01T14:01:42.087Z,50.78
2019-03-01T14:04:11.642Z,44.90
2019-03-01T14:06:41.091Z,44.38
2019-03-01T14:09:13.089Z,45.20
2019-03-01T14:11:42.596Z,44.33
2019-03-01T14:14:12.075Z,42.70
2019-03-01T14:16:41.647Z,40.40
2019-03-01T14:19:11.143Z,40.88
2019-03-01T14:21:40.614Z,35.45
2019-03-01T14:24:10.096Z,38.42
2019-03-01T14:26:39.549Z,38.25
2019-03-01T14:29:08.968Z,34.66
2019-03-01T14:31:39.735Z,37.28
2019-03-01T14:34:11.611Z,30.60
2019-03-01T14:36:43.118Z,23.30
2019-03-01T14:39:16.791Z,21.07
2019-03-01T14:41:46.850Z,22.32
2019-03-01T14:44:16.519Z,19.40
2019-03-01T14:46:46.764Z,22.05
2019-03-01T14:49:18.452Z,18.60
2019-03-01T14:51:48.031Z,15.83
2019-03-01T14:54:18.016Z,15.13
2019-03-01T14:56:48.282Z,17.27
2019-03-01T14:59:38.051Z,15.68
2019-03-01T15:02:19.011Z,16.77
2019-03-01T15:04:48.877Z,15.60
2019-03-01T15:07:19.681Z,14.60
2019-03-01T15:09:49.338Z,13.93
2019-03-01T15:12:21.110Z,12.30
2019-03-01T15:14:50.938Z,16.82
2019-03-01T15:17:21.655Z,13.23
2019-03-01T15:19:52.827Z,10.72
2019-03-01T15:22:22.338Z,10.65
2019-03-01T15:24:52.430Z,12.98
2019-03-01T15:27:23.205Z,14.90
2019-03-01T15:29:53.061Z,14.93
2019-03-01T15:32:23.154Z,16.67
2019-03-01T15:34:53.293Z,14.03
2019-03-01T15:37:22.914Z,14.55
2019-03-01T15:39:54.261Z,14.55
2019-03-01T15:42:24.174Z,12.80
2019-03-01T15:44:54.995Z,10.63
2019-03-01T15:47:26.621Z,13.35
2019-03-01T15:49:57.537Z,12.35
2019-03-01T15:52:29.057Z,12.37
2019-03-01T15:54:58.599Z,12.20
2019-03-01T15:57:28.233Z,12.20
2019-03-01T15:59:58.651Z,10.55
2019-03-01T16:02:28.127Z,12.40
2019-03-01T16:04:57.568Z,11.93
2019-03-01T16:07:29.051Z,11.12
2019-03-01T16:10:01.280Z,11.65
2019-03-01T16:12:32.238Z,12.65
2019-03-01T16:15:01.837Z,10.23
2019-03-01T16:17:32.625Z,12.73
2019-03-01T16:20:02.084Z,9.80
2019-03-01T16:22:32.592Z,12.50
2019-03-01T16:25:02.091Z,13.75
2019-03-01T16:27:31.642Z,10.70
2019-03-01T16:30:01.139Z,12.30
2019-03-01T16:32:30.676Z,7.85
2019-03-01T16:35:00.232Z,10.88
2019-03-01T16:37:30.406Z,11.18
2019-03-01T16:40:01.461Z,12.53
2019-03-01T16:42:38.393Z,12.15
2019-03-01T16:45:03.834Z,10.55
2019-03-01T16:47:33.697Z,12.88
2019-03-01T16:50:06.509Z,11.65
2019-03-01T16:52:35.278Z,12.13
2019-03-01T16:55:07.478Z,11.88
2019-03-01T16:57:37.186Z,13.90
2019-03-01T17:00:14.674Z,10.18
2019-03-01T17:02:44.597Z,10.85
2019-03-01T17:05:15.451Z,10.35
2019-03-01T17:07:46.603Z,11.68
2019-03-01T17:10:18.553Z,12.80
2019-03-01T17:12:48.827Z,10.00
2019-03-01T17:15:23.741Z,14.87
2019-03-01T17:17:53.381Z,14.83
2019-03-01T17:20:22.995Z,12.78
2019-03-01T17:22:52.949Z,14.90
2019-03-01T17:25:23.547Z,14.60
2019-03-01T17:27:55.013Z,15.80
2019-03-01T17:30:26.519Z,14.50
2019-03-01T17:32:56.073Z,16.55
2019-03-01T17:35:25.717Z,14.13
2019-03-01T17:37:55.788Z,17.75
2019-03-01T17:40:25.554Z,13.58
2019-03-01T17:42:56.676Z,17.85
2019-03-01T17:45:27.060Z,19.50
2019-03-01T17:47:57.002Z,15.75
2019-03-01T17:50:26.793Z,17.87
2019-03-01T17:52:56.217Z,21.85
2019-03-01T17:55:27.954Z,20.35
2019-03-01T17:57:57.631Z,19.95
2019-03-01T18:00:36.539Z,17.33
2019-03-01T18:03:06.098Z,17.65
2019-03-01T18:05:40.214Z,17.77
2019-03-01T18:08:08.182Z,16.35
2019-03-01T18:10:37.790Z,19.80
2019-03-01T18:13:07.856Z,18.25
2019-03-01T18:15:37.873Z,18.77
2019-03-01T18:18:08.983Z,22.00
2019-03-01T18:20:39.387Z,16.48
2019-03-01T18:23:08.881Z,18.62
2019-03-01T18:25:38.525Z,20.15
2019-03-01T18:28:08.073Z,15.50
2019-03-01T18:30:37.732Z,19.80
2019-03-01T18:33:08.067Z,17.44
2019-03-01T18:35:37.584Z,18.65
2019-03-01T18:38:07.089Z,16.07
2019-03-01T18:40:37.986Z,17.45
2019-03-01T18:43:09.826Z,15.70
2019-03-01T18:45:41.811Z,17.65
2019-03-01T18:48:09.911Z,18.12
2019-03-01T18:50:40.136Z,19.48
2019-03-01T18:53:09.745Z,22.17
2019-03-01T18:55:39.286Z,14.20
2019-03-01T18:58:10.601Z,17.92
2019-03-01T19:00:48.107Z,20.35
2019-03-01T19:03:17.593Z,21.68
2019-03-01T19:05:47.058Z,19.27
2019-03-01T19:08:16.789Z,22.93
2019-03-01T19:10:53.985Z,25.68
2019-03-01T19:13:17.429Z,25.70
2019-03-01T19:15:48.034Z,29.45
2019-03-01T19:18:18.183Z,26.75
2019-03-01T19:20:50.678Z,25.32
2019-03-01T19:23:20.169Z,25.48
2019-03-01T19:25:49.717Z,21.23
2019-03-01T19:28:19.173Z,24.67
2019-03-01T19:30:50.521Z,24.50
2019-03-01T19:33:20.196Z,21.45
2019-03-01T19:35:49.711Z,21.73
2019-03-01T19:38:21.852Z,19.27
2019-03-01T19:40:50.370Z,20.65
2019-03-01T19:43:19.845Z,17.20
2019-03-01T19:45:49.349Z,18.62
2019-03-01T19:48:19.943Z,23.42
2019-03-01T19:50:49.516Z,21.77
2019-03-01T19:53:21.667Z,21.20
2019-03-01T19:55:51.722Z,22.62
2019-03-01T19:58:21.212Z,18.02
2019-03-01T20:00:51.032Z,21.17
2019-03-01T20:03:20.508Z,20.07
2019-03-01T20:05:50.006Z,17.87
2019-03-01T20:08:19.581Z,16.37
2019-03-01T20:10:51.042Z,20.88
2019-03-01T20:13:20.698Z,16.23
2019-03-01T20:15:50.684Z,19.05
2019-03-01T20:18:20.180Z,19.60
2019-03-01T20:20:49.645Z,16.65
2019-03-01T20:23:20.321Z,17.75
2019-03-01T20:25:51.064Z,19.12
2019-03-01T20:28:21.136Z,20.25
2019-03-01T20:30:50.942Z,19.62
2019-03-01T20:33:23.513Z,16.23
2019-03-01T20:35:52.084Z,17.52
2019-03-01T20:38:21.625Z,16.95
2019-03-01T20:40:51.100Z,17.07
2019-03-01T20:43:20.652Z,21.25
2019-03-01T20:45:50.144Z,17.95
2019-03-01T20:48:20.053Z,18.65
2019-03-01T20:50:51.042Z,14.83
2019-03-01T20:53:21.333Z,15.05
2019-03-01T20:55:51.110Z,16.17
2019-03-01T20:58:22.090Z,21.62
2019-03-01T21:00:51.724Z,16.40
2019-03-01T21:03:24.089Z,17.12
2019-03-01T21:05:52.405Z,17.37
2019-03-01T21:08:21.873Z,16.20
2019-03-01T21:10:51.319Z,13.30
2019-03-01T21:13:20.801Z,15.55
2019-03-01T21:15:50.288Z,13.18
2019-03-01T21:18:19.768Z,14.15
2019-03-01T21:20:50.614Z,15.25
2019-03-01T21:23:20.384Z,16.23
2019-03-01T21:25:49.901Z,17.23
2019-03-01T21:28:19.372Z,19.20
2019-03-01T21:30:49.235Z,20.60
2019-03-01T21:33:18.712Z,15.78
2019-03-01T21:35:52.019Z,19.48
2019-03-01T21:38:22.562Z,16.25
2019-03-01T21:40:52.285Z,16.67
2019-03-01T21:43:22.729Z,16.87
2019-03-01T21:45:55.438Z,23.12
2019-03-01T21:48:25.276Z,15.93
2019-03-01T21:50:55.702Z,22.17
2019-03-01T21:53:25.407Z,22.37
2019-03-01T21:55:54.811Z,15.68
2019-03-01T21:58:24.300Z,17.82
2019-03-01T22:00:53.733Z,16.27
2019-03-01T22:03:24.821Z,18.48
2019-03-01T22:05:54.358Z,22.17
2019-03-01T22:08:23.804Z,19.17
2019-03-01T22:10:53.320Z,20.57
2019-03-01T22:13:22.805Z,21.00
2019-03-01T22:15:52.381Z,22.48
2019-03-01T22:18:23.752Z,17.92
2019-03-01T22:20:53.086Z,22.32
2019-03-01T22:23:22.538Z,19.85
2019-03-01T22:25:52.971Z,19.67
2019-03-01T22:28:22.456Z,19.92
2019-03-01T22:30:52.006Z,25.85
2019-03-01T22:33:22.081Z,19.87
2019-03-01T22:35:51.777Z,21.35
2019-03-01T22:38:22.776Z,19.23
2019-03-01T22:40:52.210Z,18.82
2019-03-01T22:43:22.494Z,18.17
2019-03-01T22:45:52.818Z,18.48
2019-03-01T22:48:22.252Z,18.57
2019-03-01T22:50:51.745Z,18.95
2019-03-01T22:53:22.258Z,19.30
2019-03-01T22:55:51.721Z,23.87
2019-03-01T22:58:21.192Z,19.27
2019-03-01T23:01:03.575Z,18.60
2019-03-01T23:03:33.242Z,17.92
2019-03-01T23:06:02.714Z,18.40
2019-03-01T23:08:35.528Z,17.85
2019-03-01T23:11:04.555Z,16.62
2019-03-01T23:13:34.052Z,18.05
2019-03-01T23:16:04.503Z,19.75
2019-03-01T23:18:33.970Z,18.40
2019-03-01T23:21:04.317Z,18.20
2019-03-01T23:23:33.799Z,16.42
2019-03-01T23:26:03.243Z,18.90
2019-03-01T23:28:32.795Z,27.55
2019-03-01T23:31:03.622Z,16.57
2019-03-01T23:33:33.950Z,17.82
2019-03-01T23:36:04.324Z,18.32
2019-03-01T23:38:33.786Z,19.37
2019-03-01T23:41:03.260Z,16.40
2019-03-01T23:43:32.736Z,17.02
2019-03-01T23:46:02.174Z,19.40
2019-03-01T23:48:31.706Z,23.50
2019-03-01T23:51:01.147Z,20.30
2019-03-01T23:53:30.977Z,21.37
2019-03-01T23:56:01.879Z,21.57
2019-03-01T23:58:31.310Z,18.47
